HI511EM MDPC-MDPP
Flight info
| Callsign | HI511EM |
|---|---|
| Flight time | 0h 56m |
| Altitude | 12000 |
| Route | DCT PC112 DCT PC229 DCT BETUM DCT TADIM DCT FIDEL DCT PIXIM DCT POKIL DCT |
| Aircraft | K100/L-SBDGRY/S |
Departure
| Time | 2026-04-29 15:02 |
|---|---|
| Airport | Punta Cana International Airport (MDPC) |
Arrival
| Time | 2026-04-29 15:59 |
|---|---|
| Airport | Gregorio Luperon International Airport (MDPP) |
| Time | Latitude | Longitude | Altitude | Speed | Heading |
|---|---|---|---|---|---|
| 2026-04-29 14:49 | 18.56423 | -68.35776 | 47 ft | 0 kts | 174° |
| 2026-04-29 14:54 | 18.56420 | -68.35777 | 47 ft | 0 kts | 223° |
| 2026-04-29 14:54 | 18.56426 | -68.35781 | 47 ft | 4 kts | 355° |
| 2026-04-29 14:55 | 18.56472 | -68.35784 | 47 ft | 9 kts | 357° |
| 2026-04-29 14:55 | 18.56509 | -68.35844 | 46 ft | 15 kts | 266° |
| 2026-04-29 14:55 | 18.56498 | -68.35976 | 47 ft | 21 kts | 263° |
| 2026-04-29 14:55 | 18.56482 | -68.36137 | 47 ft | 23 kts | 262° |
| 2026-04-29 14:56 | 18.56470 | -68.36291 | 47 ft | 21 kts | 264° |
| 2026-04-29 14:56 | 18.56524 | -68.36402 | 47 ft | 18 kts | 328° |
| 2026-04-29 14:56 | 18.56541 | -68.36529 | 47 ft | 19 kts | 264° |
| 2026-04-29 14:56 | 18.56529 | -68.36676 | 47 ft | 21 kts | 265° |
| 2026-04-29 14:57 | 18.56517 | -68.36835 | 47 ft | 22 kts | 265° |
| 2026-04-29 14:57 | 18.56503 | -68.37002 | 47 ft | 23 kts | 263° |
| 2026-04-29 14:57 | 18.56486 | -68.37175 | 47 ft | 24 kts | 264° |
| 2026-04-29 14:57 | 18.56470 | -68.37355 | 47 ft | 25 kts | 266° |
| 2026-04-29 14:58 | 18.56454 | -68.37541 | 47 ft | 26 kts | 265° |
| 2026-04-29 14:58 | 18.56441 | -68.37706 | 47 ft | 19 kts | 266° |
| 2026-04-29 14:58 | 18.56521 | -68.37789 | 47 ft | 19 kts | 358° |
| 2026-04-29 14:58 | 18.56652 | -68.37804 | 47 ft | 18 kts | 336° |
| 2026-04-29 14:59 | 18.56725 | -68.37913 | 47 ft | 20 kts | 295° |
| 2026-04-29 14:59 | 18.56784 | -68.38048 | 46 ft | 21 kts | 295° |
| 2026-04-29 14:59 | 18.56843 | -68.38185 | 47 ft | 20 kts | 295° |
| 2026-04-29 14:59 | 18.56934 | -68.38264 | 48 ft | 1 kts | 344° |
| 2026-04-29 15:00 | 18.56936 | -68.38265 | 48 ft | 2 kts | 344° |
| 2026-04-29 15:00 | 18.56985 | -68.38279 | 48 ft | 11 kts | 346° |
| 2026-04-29 15:01 | 18.57042 | -68.38256 | 48 ft | 0 kts | 72° |
| 2026-04-29 15:01 | 18.57056 | -68.38205 | 48 ft | 32 kts | 73° |
| 2026-04-29 15:01 | 18.57171 | -68.37768 | 47 ft | 85 kts | 73° |
| 2026-04-29 15:01 | 18.57326 | -68.37171 | 210 ft | 83 kts | 73° |
| 2026-04-29 15:02 | 18.57520 | -68.36540 | 324 ft | 99 kts | 74° |
| 2026-04-29 15:02 | 18.57757 | -68.35801 | 534 ft | 106 kts | 74° |
| 2026-04-29 15:02 | 18.58143 | -68.35163 | 793 ft | 105 kts | 38° |
| 2026-04-29 15:02 | 18.58889 | -68.35018 | 967 ft | 121 kts | 356° |
| 2026-04-29 15:03 | 18.59668 | -68.35328 | 1283 ft | 119 kts | 341° |
| 2026-04-29 15:03 | 18.60414 | -68.35693 | 1568 ft | 118 kts | 341° |
| 2026-04-29 15:03 | 18.61139 | -68.36113 | 1829 ft | 119 kts | 336° |
| 2026-04-29 15:03 | 18.61831 | -68.36560 | 2129 ft | 116 kts | 336° |
| 2026-04-29 15:04 | 18.62521 | -68.36999 | 2416 ft | 116 kts | 335° |
| 2026-04-29 15:04 | 18.63214 | -68.37439 | 2724 ft | 116 kts | 335° |
| 2026-04-29 15:04 | 18.63908 | -68.37881 | 3025 ft | 117 kts | 335° |
| 2026-04-29 15:04 | 18.64619 | -68.38329 | 3277 ft | 120 kts | 338° |
| 2026-04-29 15:05 | 18.65336 | -68.38786 | 3545 ft | 120 kts | 335° |
| 2026-04-29 15:05 | 18.66044 | -68.39242 | 3833 ft | 119 kts | 335° |
| 2026-04-29 15:05 | 18.66762 | -68.39699 | 4127 ft | 120 kts | 334° |
| 2026-04-29 15:05 | 18.67462 | -68.40176 | 4412 ft | 122 kts | 324° |
| 2026-04-29 15:06 | 18.67994 | -68.40882 | 4683 ft | 125 kts | 314° |
| 2026-04-29 15:06 | 18.68542 | -68.41594 | 4962 ft | 125 kts | 313° |
| 2026-04-29 15:06 | 18.69083 | -68.42305 | 5260 ft | 124 kts | 313° |
| 2026-04-29 15:06 | 18.69630 | -68.43025 | 5510 ft | 128 kts | 314° |
| 2026-04-29 15:07 | 18.70191 | -68.43758 | 5805 ft | 128 kts | 313° |
| 2026-04-29 15:07 | 18.70743 | -68.44490 | 6086 ft | 128 kts | 314° |
| 2026-04-29 15:07 | 18.71295 | -68.45223 | 6372 ft | 127 kts | 311° |
| 2026-04-29 15:07 | 18.71850 | -68.45953 | 6590 ft | 129 kts | 314° |
| 2026-04-29 15:08 | 18.72410 | -68.46688 | 6853 ft | 127 kts | 313° |
| 2026-04-29 15:08 | 18.72958 | -68.47413 | 7136 ft | 126 kts | 311° |
| 2026-04-29 15:08 | 18.73503 | -68.48134 | 7414 ft | 125 kts | 310° |
| 2026-04-29 15:08 | 18.74049 | -68.48856 | 7678 ft | 127 kts | 311° |
| 2026-04-29 15:09 | 18.74601 | -68.49581 | 7942 ft | 127 kts | 311° |
| 2026-04-29 15:09 | 18.75149 | -68.50303 | 8218 ft | 126 kts | 310° |
| 2026-04-29 15:09 | 18.75694 | -68.51022 | 8483 ft | 125 kts | 310° |
| 2026-04-29 15:09 | 18.76238 | -68.51741 | 8755 ft | 125 kts | 309° |
| 2026-04-29 15:10 | 18.76779 | -68.52457 | 9025 ft | 125 kts | 309° |
| 2026-04-29 15:10 | 18.77321 | -68.53171 | 9298 ft | 125 kts | 308° |
| 2026-04-29 15:10 | 18.77859 | -68.53883 | 9588 ft | 123 kts | 307° |
| 2026-04-29 15:10 | 18.78391 | -68.54590 | 9863 ft | 124 kts | 308° |
| 2026-04-29 15:11 | 18.78932 | -68.55302 | 10111 ft | 124 kts | 307° |
| 2026-04-29 15:11 | 18.79460 | -68.55999 | 10345 ft | 124 kts | 307° |
| 2026-04-29 15:11 | 18.80003 | -68.56717 | 10577 ft | 125 kts | 306° |
| 2026-04-29 15:11 | 18.80422 | -68.57494 | 10836 ft | 121 kts | 290° |
| 2026-04-29 15:12 | 18.80769 | -68.58318 | 11054 ft | 124 kts | 294° |
| 2026-04-29 15:12 | 18.81014 | -68.58879 | 11203 ft | 125 kts | 293° |
| 2026-04-29 15:12 | 18.81487 | -68.59974 | 11538 ft | 123 kts | 292° |
| 2026-04-29 15:12 | 18.81841 | -68.60798 | 11776 ft | 123 kts | 291° |
| 2026-04-29 15:13 | 18.82194 | -68.61619 | 12006 ft | 124 kts | 291° |
| 2026-04-29 15:13 | 18.82579 | -68.62502 | 12018 ft | 140 kts | 292° |
| 2026-04-29 15:13 | 18.83000 | -68.63474 | 12025 ft | 150 kts | 292° |
| 2026-04-29 15:13 | 18.83442 | -68.64504 | 12027 ft | 157 kts | 291° |
| 2026-04-29 15:14 | 18.83891 | -68.65554 | 12027 ft | 161 kts | 292° |
| 2026-04-29 15:14 | 18.84361 | -68.66652 | 12027 ft | 163 kts | 292° |
| 2026-04-29 15:14 | 18.84823 | -68.67730 | 12029 ft | 163 kts | 291° |
| 2026-04-29 15:14 | 18.85290 | -68.68821 | 12026 ft | 164 kts | 292° |
| 2026-04-29 15:15 | 18.85758 | -68.69913 | 12024 ft | 163 kts | 292° |
| 2026-04-29 15:15 | 18.86223 | -68.71003 | 12025 ft | 163 kts | 292° |
| 2026-04-29 15:15 | 18.86694 | -68.72099 | 12027 ft | 165 kts | 293° |
| 2026-04-29 15:15 | 18.87169 | -68.73205 | 12027 ft | 165 kts | 293° |
| 2026-04-29 15:16 | 18.87643 | -68.74310 | 12026 ft | 165 kts | 293° |
| 2026-04-29 15:16 | 18.88116 | -68.75412 | 12026 ft | 164 kts | 292° |
| 2026-04-29 15:16 | 18.88589 | -68.76514 | 12026 ft | 165 kts | 293° |
| 2026-04-29 15:16 | 18.89061 | -68.77615 | 12027 ft | 164 kts | 292° |
| 2026-04-29 15:17 | 18.89532 | -68.78713 | 12029 ft | 164 kts | 292° |
| 2026-04-29 15:17 | 18.90002 | -68.79812 | 12028 ft | 165 kts | 293° |
| 2026-04-29 15:17 | 18.90475 | -68.80915 | 12027 ft | 165 kts | 293° |
| 2026-04-29 15:17 | 18.90951 | -68.82026 | 12027 ft | 166 kts | 292° |
| 2026-04-29 15:18 | 18.91426 | -68.83132 | 12028 ft | 165 kts | 292° |
| 2026-04-29 15:18 | 18.91898 | -68.84235 | 12029 ft | 165 kts | 292° |
| 2026-04-29 15:18 | 18.92371 | -68.85340 | 12029 ft | 165 kts | 292° |
| 2026-04-29 15:18 | 18.92846 | -68.86447 | 12032 ft | 166 kts | 293° |
| 2026-04-29 15:19 | 18.93322 | -68.87563 | 12027 ft | 167 kts | 293° |
| 2026-04-29 15:19 | 18.93793 | -68.88664 | 12026 ft | 166 kts | 293° |
| 2026-04-29 15:19 | 18.94269 | -68.89777 | 12025 ft | 166 kts | 293° |
| 2026-04-29 15:19 | 18.94743 | -68.90888 | 12025 ft | 166 kts | 293° |
| 2026-04-29 15:20 | 18.95220 | -68.92003 | 12026 ft | 166 kts | 293° |
| 2026-04-29 15:20 | 18.95697 | -68.93114 | 12026 ft | 166 kts | 293° |
| 2026-04-29 15:20 | 18.96173 | -68.94227 | 12025 ft | 166 kts | 293° |
| 2026-04-29 15:20 | 18.96647 | -68.95337 | 12025 ft | 166 kts | 293° |
| 2026-04-29 15:21 | 18.97123 | -68.96452 | 12026 ft | 166 kts | 293° |
| 2026-04-29 15:21 | 18.97599 | -68.97566 | 12025 ft | 167 kts | 293° |
| 2026-04-29 15:21 | 18.98076 | -68.98681 | 12025 ft | 166 kts | 293° |
| 2026-04-29 15:21 | 18.98551 | -68.99794 | 12025 ft | 166 kts | 293° |
| 2026-04-29 15:22 | 18.99029 | -69.00913 | 12026 ft | 166 kts | 293° |
| 2026-04-29 15:22 | 18.99563 | -69.01975 | 12028 ft | 167 kts | 302° |
| 2026-04-29 15:22 | 19.00210 | -69.02993 | 12028 ft | 167 kts | 302° |
| 2026-04-29 15:22 | 19.00850 | -69.04020 | 12028 ft | 167 kts | 301° |
| 2026-04-29 15:23 | 19.01489 | -69.05049 | 12031 ft | 167 kts | 301° |
| 2026-04-29 15:23 | 19.02128 | -69.06077 | 12032 ft | 167 kts | 301° |
| 2026-04-29 15:23 | 19.02766 | -69.07103 | 12032 ft | 167 kts | 301° |
| 2026-04-29 15:23 | 19.03405 | -69.08132 | 12032 ft | 167 kts | 301° |
| 2026-04-29 15:24 | 19.04041 | -69.09156 | 12028 ft | 167 kts | 302° |
| 2026-04-29 15:24 | 19.04683 | -69.10188 | 12029 ft | 167 kts | 302° |
| 2026-04-29 15:24 | 19.05321 | -69.11215 | 12029 ft | 167 kts | 302° |
| 2026-04-29 15:24 | 19.05950 | -69.12229 | 12029 ft | 167 kts | 302° |
| 2026-04-29 15:25 | 19.06589 | -69.13258 | 12029 ft | 167 kts | 302° |
| 2026-04-29 15:25 | 19.07228 | -69.14285 | 12028 ft | 167 kts | 302° |
| 2026-04-29 15:25 | 19.07863 | -69.15309 | 12028 ft | 167 kts | 302° |
| 2026-04-29 15:25 | 19.08500 | -69.16334 | 12028 ft | 167 kts | 301° |
| 2026-04-29 15:26 | 19.09136 | -69.17359 | 12028 ft | 167 kts | 302° |
| 2026-04-29 15:26 | 19.09771 | -69.18382 | 12028 ft | 166 kts | 302° |
| 2026-04-29 15:26 | 19.10405 | -69.19405 | 12026 ft | 166 kts | 301° |
| 2026-04-29 15:26 | 19.11039 | -69.20427 | 12027 ft | 166 kts | 301° |
| 2026-04-29 15:27 | 19.11673 | -69.21448 | 12031 ft | 166 kts | 301° |
| 2026-04-29 15:27 | 19.12306 | -69.22472 | 12031 ft | 167 kts | 301° |
| 2026-04-29 15:27 | 19.12942 | -69.23497 | 12031 ft | 167 kts | 302° |
| 2026-04-29 15:27 | 19.13580 | -69.24527 | 12032 ft | 167 kts | 302° |
| 2026-04-29 15:28 | 19.14220 | -69.25558 | 12033 ft | 169 kts | 302° |
| 2026-04-29 15:28 | 19.14651 | -69.26254 | 12030 ft | 170 kts | 302° |
| 2026-04-29 15:28 | 19.15529 | -69.27673 | 12032 ft | 179 kts | 302° |
| 2026-04-29 15:28 | 19.16221 | -69.28784 | 12031 ft | 183 kts | 302° |
| 2026-04-29 15:29 | 19.16925 | -69.29918 | 12030 ft | 185 kts | 301° |
| 2026-04-29 15:29 | 19.18342 | -69.32211 | 12031 ft | 187 kts | 302° |
| 2026-04-29 15:30 | 19.19771 | -69.34519 | 12033 ft | 188 kts | 302° |
| 2026-04-29 15:30 | 19.20487 | -69.35675 | 12033 ft | 188 kts | 301° |
| 2026-04-29 15:30 | 19.21204 | -69.36833 | 12035 ft | 188 kts | 302° |
| 2026-04-29 15:30 | 19.21921 | -69.37993 | 12007 ft | 189 kts | 302° |
| 2026-04-29 15:31 | 19.22638 | -69.39155 | 12009 ft | 188 kts | 301° |
| 2026-04-29 15:31 | 19.23353 | -69.40310 | 12009 ft | 188 kts | 302° |
| 2026-04-29 15:31 | 19.24067 | -69.41465 | 12008 ft | 188 kts | 302° |
| 2026-04-29 15:31 | 19.24783 | -69.42623 | 12009 ft | 188 kts | 302° |
| 2026-04-29 15:32 | 19.25502 | -69.43787 | 12007 ft | 189 kts | 302° |
| 2026-04-29 15:32 | 19.26223 | -69.44952 | 12008 ft | 189 kts | 302° |
| 2026-04-29 15:32 | 19.26933 | -69.46102 | 12007 ft | 189 kts | 302° |
| 2026-04-29 15:32 | 19.27652 | -69.47266 | 12004 ft | 189 kts | 301° |
| 2026-04-29 15:33 | 19.28365 | -69.48422 | 12002 ft | 187 kts | 301° |
| 2026-04-29 15:33 | 19.29072 | -69.49566 | 12003 ft | 185 kts | 301° |
| 2026-04-29 15:33 | 19.29760 | -69.50709 | 12005 ft | 184 kts | 298° |
| 2026-04-29 15:33 | 19.30425 | -69.51870 | 12004 ft | 184 kts | 300° |
| 2026-04-29 15:34 | 19.31105 | -69.53021 | 12007 ft | 184 kts | 300° |
| 2026-04-29 15:34 | 19.31780 | -69.54174 | 12008 ft | 184 kts | 300° |
| 2026-04-29 15:34 | 19.32454 | -69.55331 | 12009 ft | 185 kts | 300° |
| 2026-04-29 15:34 | 19.33127 | -69.56488 | 12028 ft | 185 kts | 300° |
| 2026-04-29 15:35 | 19.33801 | -69.57649 | 12027 ft | 185 kts | 300° |
| 2026-04-29 15:35 | 19.34477 | -69.58810 | 12027 ft | 185 kts | 300° |
| 2026-04-29 15:35 | 19.35153 | -69.59974 | 12027 ft | 185 kts | 300° |
| 2026-04-29 15:35 | 19.35828 | -69.61136 | 12028 ft | 185 kts | 300° |
| 2026-04-29 15:36 | 19.36505 | -69.62300 | 12033 ft | 186 kts | 300° |
| 2026-04-29 15:36 | 19.37184 | -69.63470 | 12035 ft | 187 kts | 300° |
| 2026-04-29 15:36 | 19.37870 | -69.64651 | 12036 ft | 189 kts | 300° |
| 2026-04-29 15:36 | 19.38560 | -69.65838 | 12035 ft | 190 kts | 301° |
| 2026-04-29 15:37 | 19.39256 | -69.67033 | 12031 ft | 190 kts | 300° |
| 2026-04-29 15:37 | 19.39944 | -69.68222 | 12030 ft | 189 kts | 300° |
| 2026-04-29 15:37 | 19.40628 | -69.69406 | 12028 ft | 187 kts | 300° |
| 2026-04-29 15:37 | 19.41306 | -69.70577 | 12028 ft | 186 kts | 300° |
| 2026-04-29 15:38 | 19.41974 | -69.71730 | 12026 ft | 186 kts | 300° |
| 2026-04-29 15:38 | 19.42649 | -69.72895 | 12026 ft | 185 kts | 300° |
| 2026-04-29 15:38 | 19.43324 | -69.74059 | 12026 ft | 185 kts | 300° |
| 2026-04-29 15:38 | 19.43997 | -69.75219 | 12026 ft | 185 kts | 300° |
| 2026-04-29 15:39 | 19.44669 | -69.76380 | 12025 ft | 185 kts | 300° |
| 2026-04-29 15:39 | 19.45343 | -69.77544 | 12026 ft | 185 kts | 300° |
| 2026-04-29 15:39 | 19.46015 | -69.78704 | 12025 ft | 185 kts | 300° |
| 2026-04-29 15:39 | 19.46687 | -69.79864 | 12026 ft | 185 kts | 300° |
| 2026-04-29 15:40 | 19.47360 | -69.81026 | 12023 ft | 185 kts | 300° |
| 2026-04-29 15:40 | 19.47804 | -69.81792 | 12023 ft | 185 kts | 300° |
| 2026-04-29 15:40 | 19.48476 | -69.82955 | 12023 ft | 185 kts | 300° |
| 2026-04-29 15:40 | 19.49148 | -69.84116 | 12022 ft | 185 kts | 300° |
| 2026-04-29 15:41 | 19.49819 | -69.85275 | 12025 ft | 185 kts | 300° |
| 2026-04-29 15:41 | 19.50491 | -69.86436 | 12020 ft | 184 kts | 300° |
| 2026-04-29 15:41 | 19.51162 | -69.87594 | 12019 ft | 184 kts | 300° |
| 2026-04-29 15:41 | 19.51835 | -69.88755 | 12020 ft | 185 kts | 300° |
| 2026-04-29 15:42 | 19.52505 | -69.89915 | 12022 ft | 184 kts | 300° |
| 2026-04-29 15:42 | 19.53053 | -69.91134 | 12023 ft | 184 kts | 288° |
| 2026-04-29 15:42 | 19.53495 | -69.92410 | 12023 ft | 185 kts | 289° |
| 2026-04-29 15:42 | 19.53955 | -69.93684 | 12019 ft | 185 kts | 290° |
| 2026-04-29 15:43 | 19.54412 | -69.94960 | 12019 ft | 185 kts | 289° |
| 2026-04-29 15:43 | 19.54867 | -69.96224 | 11888 ft | 182 kts | 290° |
| 2026-04-29 15:43 | 19.55316 | -69.97472 | 11614 ft | 180 kts | 290° |
| 2026-04-29 15:43 | 19.55749 | -69.98686 | 11344 ft | 178 kts | 290° |
| 2026-04-29 15:44 | 19.56190 | -69.99922 | 11080 ft | 176 kts | 290° |
| 2026-04-29 15:44 | 19.56615 | -70.01114 | 10824 ft | 175 kts | 290° |
| 2026-04-29 15:44 | 19.57044 | -70.02315 | 10567 ft | 173 kts | 289° |
| 2026-04-29 15:44 | 19.57469 | -70.03508 | 10311 ft | 172 kts | 290° |
| 2026-04-29 15:45 | 19.57893 | -70.04697 | 10058 ft | 172 kts | 290° |
| 2026-04-29 15:45 | 19.58316 | -70.05880 | 9802 ft | 171 kts | 290° |
| 2026-04-29 15:45 | 19.58736 | -70.07061 | 9515 ft | 171 kts | 290° |
| 2026-04-29 15:45 | 19.59158 | -70.08242 | 9232 ft | 171 kts | 290° |
| 2026-04-29 15:46 | 19.59580 | -70.09430 | 8950 ft | 173 kts | 290° |
| 2026-04-29 15:46 | 19.60007 | -70.10625 | 8684 ft | 173 kts | 290° |
| 2026-04-29 15:46 | 19.60434 | -70.11822 | 8416 ft | 174 kts | 290° |
| 2026-04-29 15:46 | 19.60857 | -70.13010 | 8151 ft | 174 kts | 290° |
| 2026-04-29 15:47 | 19.61287 | -70.14215 | 7885 ft | 175 kts | 290° |
| 2026-04-29 15:47 | 19.61718 | -70.15426 | 7622 ft | 176 kts | 290° |
| 2026-04-29 15:47 | 19.62151 | -70.16641 | 7360 ft | 176 kts | 290° |
| 2026-04-29 15:47 | 19.62585 | -70.17859 | 7102 ft | 177 kts | 290° |
| 2026-04-29 15:48 | 19.63022 | -70.19086 | 6843 ft | 178 kts | 290° |
| 2026-04-29 15:48 | 19.63460 | -70.20316 | 6581 ft | 178 kts | 289° |
| 2026-04-29 15:48 | 19.63897 | -70.21549 | 6322 ft | 179 kts | 290° |
| 2026-04-29 15:48 | 19.64335 | -70.22786 | 6053 ft | 180 kts | 290° |
| 2026-04-29 15:49 | 19.64779 | -70.24032 | 5777 ft | 181 kts | 290° |
| 2026-04-29 15:49 | 19.65221 | -70.25273 | 5511 ft | 179 kts | 290° |
| 2026-04-29 15:49 | 19.65655 | -70.26495 | 5241 ft | 179 kts | 290° |
| 2026-04-29 15:49 | 19.66098 | -70.27739 | 4987 ft | 180 kts | 290° |
| 2026-04-29 15:50 | 19.66538 | -70.28984 | 4720 ft | 180 kts | 290° |
| 2026-04-29 15:50 | 19.66982 | -70.30233 | 4450 ft | 181 kts | 290° |
| 2026-04-29 15:50 | 19.67427 | -70.31488 | 4178 ft | 182 kts | 290° |
| 2026-04-29 15:50 | 19.67875 | -70.32749 | 3915 ft | 182 kts | 291° |
| 2026-04-29 15:51 | 19.68324 | -70.34003 | 3648 ft | 181 kts | 291° |
| 2026-04-29 15:51 | 19.68767 | -70.35249 | 3372 ft | 180 kts | 291° |
| 2026-04-29 15:51 | 19.69212 | -70.36490 | 3108 ft | 180 kts | 291° |
| 2026-04-29 15:51 | 19.69648 | -70.37735 | 2837 ft | 180 kts | 291° |
| 2026-04-29 15:52 | 19.70072 | -70.38963 | 2578 ft | 179 kts | 291° |
| 2026-04-29 15:52 | 19.70504 | -70.40219 | 2301 ft | 178 kts | 291° |
| 2026-04-29 15:52 | 19.70921 | -70.41444 | 2038 ft | 179 kts | 291° |
| 2026-04-29 15:52 | 19.71322 | -70.42641 | 2003 ft | 165 kts | 290° |
| 2026-04-29 15:53 | 19.71708 | -70.43754 | 2006 ft | 157 kts | 291° |
| 2026-04-29 15:53 | 19.72079 | -70.44834 | 2008 ft | 156 kts | 292° |
| 2026-04-29 15:53 | 19.72438 | -70.45920 | 2004 ft | 156 kts | 291° |
| 2026-04-29 15:53 | 19.72795 | -70.46992 | 1997 ft | 152 kts | 290° |
| 2026-04-29 15:54 | 19.73153 | -70.48034 | 1999 ft | 149 kts | 291° |
| 2026-04-29 15:54 | 19.73506 | -70.49077 | 1996 ft | 151 kts | 291° |
| 2026-04-29 15:54 | 19.73853 | -70.50122 | 2012 ft | 150 kts | 289° |
| 2026-04-29 15:54 | 19.73965 | -70.51210 | 1993 ft | 150 kts | 264° |
| 2026-04-29 15:55 | 19.73832 | -70.52313 | 1991 ft | 151 kts | 262° |
| 2026-04-29 15:55 | 19.73680 | -70.53423 | 2008 ft | 152 kts | 264° |
| 2026-04-29 15:55 | 19.73844 | -70.54506 | 2007 ft | 151 kts | 297° |
| 2026-04-29 15:55 | 19.74495 | -70.55412 | 1882 ft | 158 kts | 315° |
| 2026-04-29 15:56 | 19.75218 | -70.56261 | 1909 ft | 154 kts | 312° |
| 2026-04-29 15:56 | 19.75889 | -70.57134 | 1893 ft | 151 kts | 312° |
| 2026-04-29 15:56 | 19.76506 | -70.58005 | 1848 ft | 147 kts | 304° |
| 2026-04-29 15:56 | 19.76859 | -70.58999 | 1805 ft | 143 kts | 273° |
| 2026-04-29 15:57 | 19.76818 | -70.60059 | 1628 ft | 142 kts | 264° |
| 2026-04-29 15:57 | 19.76580 | -70.61019 | 1496 ft | 129 kts | 234° |
| 2026-04-29 15:57 | 19.75916 | -70.61510 | 1305 ft | 106 kts | 175° |
| 2026-04-29 15:57 | 19.75286 | -70.61425 | 1117 ft | 83 kts | 133° |
| 2026-04-29 15:58 | 19.74969 | -70.60851 | 971 ft | 97 kts | 96° |
| 2026-04-29 15:58 | 19.74983 | -70.60122 | 727 ft | 101 kts | 79° |
| 2026-04-29 15:58 | 19.75103 | -70.59389 | 425 ft | 100 kts | 77° |
| 2026-04-29 15:58 | 19.75287 | -70.58719 | 164 ft | 86 kts | 71° |
| 2026-04-29 15:59 | 19.75448 | -70.58179 | 37 ft | 65 kts | 69° |
| 2026-04-29 15:59 | 19.75565 | -70.57781 | 31 ft | 40 kts | 73° |
| 2026-04-29 15:59 | 19.75541 | -70.57673 | 30 ft | 15 kts | 160° |
| 2026-04-29 15:59 | 19.75464 | -70.57646 | 30 ft | 10 kts | 163° |
| 2026-04-29 16:00 | 19.75395 | -70.57624 | 30 ft | 9 kts | 162° |
| 2026-04-29 16:00 | 19.75373 | -70.57575 | 30 ft | 7 kts | 159° |
| 2026-04-29 16:00 | 19.75367 | -70.57583 | 30 ft | 0 kts | 259° |